Time;durP1;ratioP1;P1;durP2;ratioP2;P2;SDS_P1;SDS_P2;PMS_P1;PMS_P2;Temp;Humidity;BMP_temperature;BMP_pressure;BME280_temperature;BME280_humidity;BME280_pressure;Samples;Min_cycle;Max_cycle;Signal;HPM_P1;HPM_P2
2023/11/17 00:01:02;;;;;;;4.63;1.30;;;2.50;99.90;;;;;;4967496;28;20105;-61
2023/11/17 00:03:29;;;;;;;1.17;1.08;;;2.50;99.90;;;;;;4964732;28;20410;-61
2023/11/17 00:05:56;;;;;;;1.10;1.10;;;2.50;99.90;;;;;;4961809;28;20110;-61
2023/11/17 00:08:23;;;;;;;4.00;1.27;;;2.50;99.90;;;;;;4952984;28;20054;-61
2023/11/17 00:10:49;;;;;;;2.13;0.85;;;2.50;99.90;;;;;;4969802;28;20043;-61
2023/11/17 00:13:16;;;;;;;3.53;1.20;;;2.40;99.90;;;;;;4968514;28;20055;-60
2023/11/17 00:15:42;;;;;;;4.40;1.38;;;2.40;99.90;;;;;;4969817;28;20046;-61
2023/11/17 00:18:09;;;;;;;5.78;1.27;;;2.40;99.90;;;;;;4960025;28;20043;-61
2023/11/17 00:20:35;;;;;;;1.00;1.00;;;2.40;99.90;;;;;;4961947;28;20043;-80
2023/11/17 00:23:03;;;;;;;1.63;1.23;;;2.50;99.90;;;;;;4969292;28;20046;-61
2023/11/17 00:25:29;;;;;;;2.58;1.25;;;2.50;99.90;;;;;;4968584;28;20092;-80
2023/11/17 00:27:56;;;;;;;1.35;1.10;;;2.60;99.90;;;;;;4968615;28;20400;-61
2023/11/17 00:30:23;;;;;;;1.27;1.17;;;2.60;99.90;;;;;;4947899;28;20078;-60
2023/11/17 00:32:49;;;;;;;3.75;1.42;;;2.60;99.90;;;;;;4956737;28;20054;-61
2023/11/17 00:35:16;;;;;;;2.40;1.75;;;2.50;99.90;;;;;;4968642;28;20042;-61
2023/11/17 00:37:43;;;;;;;1.45;1.30;;;2.60;99.90;;;;;;4968843;28;20052;-61
2023/11/17 00:40:10;;;;;;;2.25;1.40;;;2.60;99.90;;;;;;4959683;28;20519;-60
2023/11/17 00:42:39;;;;;;;1.40;1.02;;;2.60;99.90;;;;;;4967892;28;20093;-61
2023/11/17 00:45:07;;;;;;;3.13;1.08;;;2.50;99.90;;;;;;4968965;28;20051;-61
2023/11/17 00:47:34;;;;;;;1.73;1.38;;;2.60;99.90;;;;;;4967897;28;20464;-61
2023/11/17 00:50:01;;;;;;;1.55;1.23;;;2.60;99.90;;;;;;4955349;28;20047;-61
2023/11/17 00:52:27;;;;;;;1.52;1.42;;;2.60;99.90;;;;;;4960238;28;20577;-60
2023/11/17 00:54:55;;;;;;;1.38;1.27;;;2.60;99.90;;;;;;4964176;28;20035;-61
2023/11/17 00:57:22;;;;;;;2.10;1.45;;;2.60;99.90;;;;;;4969530;28;20042;-61
2023/11/17 00:59:48;;;;;;;1.63;1.48;;;2.60;99.90;;;;;;4954320;28;20039;-62
2023/11/17 01:02:15;;;;;;;1.55;1.45;;;2.50;99.90;;;;;;4963560;28;20082;-61
2023/11/17 01:04:42;;;;;;;2.70;1.25;;;2.50;99.90;;;;;;4967651;28;20042;-61
2023/11/17 01:07:08;;;;;;;2.55;0.93;;;2.50;99.90;;;;;;4968695;28;20415;-76
2023/11/17 01:09:35;;;;;;;1.02;1.02;;;2.40;99.90;;;;;;4968127;28;20045;-61
2023/11/17 01:12:01;;;;;;;1.48;1.38;;;2.40;99.90;;;;;;4958552;28;20039;-76
2023/11/17 01:14:27;;;;;;;1.13;1.10;;;2.30;99.90;;;;;;4969008;28;20078;-61
2023/11/17 01:16:54;;;;;;;3.67;0.88;;;2.40;99.90;;;;;;4967956;28;20568;-61
2023/11/17 01:19:20;;;;;;;4.95;1.35;;;2.50;99.90;;;;;;4959448;28;20049;-61
2023/11/17 01:21:46;;;;;;;0.93;0.93;;;2.50;99.90;;;;;;4957789;28;20050;-61
2023/11/17 01:24:13;;;;;;;3.78;1.23;;;2.60;99.90;;;;;;4968729;28;20057;-85
2023/11/17 01:26:40;;;;;;;4.32;1.42;;;2.60;99.90;;;;;;4968991;28;20147;-60
2023/11/17 01:29:06;;;;;;;5.72;1.00;;;2.60;99.90;;;;;;4957887;28;20055;-61
2023/11/17 01:31:33;;;;;;;1.27;1.00;;;2.70;99.90;;;;;;4953074;29;20520;-61
2023/11/17 01:33:59;;;;;;;5.30;1.25;;;2.80;99.90;;;;;;4951874;29;20039;-61
2023/11/17 01:36:25;;;;;;;1.13;1.00;;;2.90;99.90;;;;;;4966001;28;20043;-60
2023/11/17 01:38:54;;;;;;;0.52;0.52;;;2.90;99.90;;;;;;4962116;28;20103;-61
2023/11/17 01:41:23;;;;;;;6.07;1.40;;;2.90;99.90;;;;;;4952982;29;20043;-61
2023/11/17 01:43:50;;;;;;;1.13;0.90;;;3.00;99.90;;;;;;4951794;29;20047;-61
2023/11/17 01:46:19;;;;;;;5.15;1.85;;;3.00;99.90;;;;;;4952824;29;20047;-62
2023/11/17 01:48:46;;;;;;;1.67;1.17;;;3.10;99.90;;;;;;4952218;29;20101;-60
2023/11/17 01:51:12;;;;;;;2.90;1.10;;;3.10;99.90;;;;;;4951921;29;20078;-61
2023/11/17 01:53:39;;;;;;;1.65;1.38;;;3.10;99.90;;;;;;4953403;29;20046;-60
2023/11/17 01:56:06;;;;;;;6.95;1.60;;;3.10;99.90;;;;;;4951326;29;20121;-60
2023/11/17 01:58:33;;;;;;;2.85;1.10;;;3.10;99.90;;;;;;4952899;29;20047;-61
2023/11/17 02:01:01;;;;;;;1.58;0.90;;;3.20;99.90;;;;;;4950994;29;20075;-61
2023/11/17 02:03:27;;;;;;;2.25;1.38;;;3.20;99.90;;;;;;4952156;29;20043;-61
2023/11/17 02:06:05;;;;;;;1.20;1.10;;;3.30;99.90;;;;;;4952327;29;20062;-61
2023/11/17 02:09:13;;;;;;;2.95;1.30;;;3.40;99.90;;;;;;4952030;29;20497;-84
2023/11/17 02:12:23;;;;;;;4.10;1.05;;;3.40;99.90;;;;;;4933483;28;20054;-61
2023/11/17 02:14:53;;;;;;;4.22;1.45;;;3.50;99.90;;;;;;4960006;28;20501;-84
2023/11/17 02:17:25;;;;;;;2.00;1.75;;;3.50;99.90;;;;;;4958896;28;20121;-76
2023/11/17 02:19:52;;;;;;;1.33;1.00;;;3.60;99.90;;;;;;4965022;28;20047;-61
2023/11/17 02:22:23;;;;;;;2.50;1.30;;;3.60;99.90;;;;;;4963692;28;20113;-61
2023/11/17 02:25:15;;;;;;;5.75;1.40;;;3.70;99.90;;;;;;4967657;28;20047;-61
2023/11/17 02:27:59;;;;;;;2.80;1.33;;;3.70;99.90;;;;;;4954226;28;20513;-61
2023/11/17 02:30:30;;;;;;;3.33;1.25;;;3.80;99.90;;;;;;4969764;28;20055;-81
2023/11/17 02:32:59;;;;;;;6.18;1.00;;;3.80;99.90;;;;;;4970501;28;20053;-81
2023/11/17 02:35:28;;;;;;;1.63;1.20;;;3.90;99.90;;;;;;4952821;28;20058;-61
2023/11/17 02:38:00;;;;;;;2.65;1.50;;;3.90;99.90;;;;;;4969095;28;20051;-61
2023/11/17 02:40:31;;;;;;;1.92;1.40;;;3.90;99.90;;;;;;4970316;28;20047;-60
2023/11/17 02:43:07;;;;;;;2.95;1.60;;;3.80;99.90;;;;;;4971096;28;20109;-61
2023/11/17 02:45:40;;;;;;;3.17;1.38;;;3.90;99.90;;;;;;4971294;28;20042;-85
2023/11/17 02:48:10;;;;;;;3.95;1.23;;;3.90;99.90;;;;;;4968814;28;20122;-64
2023/11/17 02:50:51;;;;;;;1.40;1.27;;;3.90;99.90;;;;;;4943317;28;20493;-60
2023/11/17 02:53:27;;;;;;;4.32;1.25;;;3.90;99.90;;;;;;4969968;28;20374;-61
2023/11/17 02:55:57;;;;;;;0.98;0.90;;;3.90;99.90;;;;;;4970969;28;20129;-80
2023/11/17 02:58:25;;;;;;;1.52;1.10;;;4.00;99.90;;;;;;4971283;28;20121;-84
2023/11/17 03:00:51;;;;;;;6.50;1.13;;;4.00;99.90;;;;;;4957909;28;20051;-85
2023/11/17 03:03:23;;;;;;;1.95;1.00;;;4.00;99.90;;;;;;4965682;28;20049;-61
2023/11/17 03:06:00;;;;;;;2.45;1.08;;;4.10;99.90;;;;;;4952833;28;20047;-61
2023/11/17 03:08:26;;;;;;;2.92;0.88;;;4.00;99.90;;;;;;4970719;28;20047;-79
2023/11/17 03:11:00;;;;;;;1.55;1.45;;;3.90;99.90;;;;;;4970015;28;20038;-61
2023/11/17 03:13:27;;;;;;;2.10;0.80;;;3.90;99.90;;;;;;4969690;28;20440;-62
2023/11/17 03:15:55;;;;;;;3.80;1.10;;;3.90;99.90;;;;;;4971004;28;20050;-61
2023/11/17 03:18:26;;;;;;;3.17;1.30;;;3.80;99.90;;;;;;4969157;28;20047;-85
2023/11/17 03:20:54;;;;;;;0.73;0.73;;;3.80;99.90;;;;;;4957836;28;20515;-61
2023/11/17 03:23:21;;;;;;;4.90;1.08;;;3.70;99.90;;;;;;4969246;28;20039;-60
2023/11/17 03:25:47;;;;;;;2.05;1.10;;;3.80;99.90;;;;;;4970701;28;20065;-61
2023/11/17 03:28:14;;;;;;;1.40;1.08;;;3.80;99.90;;;;;;4969996;28;20054;-60
2023/11/17 03:30:41;;;;;;;0.80;0.80;;;3.70;99.90;;;;;;4959112;28;20471;-61
2023/11/17 03:33:07;;;;;;;1.17;0.90;;;3.70;99.90;;;;;;4966473;28;20046;-86
2023/11/17 03:35:34;;;;;;;1.15;0.80;;;3.80;99.90;;;;;;4959249;28;20583;-60
2023/11/17 03:38:00;;;;;;;1.42;0.88;;;3.80;99.90;;;;;;4962197;28;20090;-61
2023/11/17 03:40:27;;;;;;;1.58;0.90;;;3.80;99.90;;;;;;4968610;28;20050;-61
2023/11/17 03:42:53;;;;;;;1.95;1.00;;;3.80;99.90;;;;;;4970614;28;20509;-85
2023/11/17 03:45:19;;;;;;;5.38;1.35;;;3.80;99.90;;;;;;4969655;28;20042;-60
2023/11/17 03:47:46;;;;;;;1.67;1.02;;;3.80;99.90;;;;;;4963545;28;20051;-82
2023/11/17 03:50:13;;;;;;;4.60;1.38;;;3.90;99.90;;;;;;4969355;28;20567;-61
2023/11/17 03:52:42;;;;;;;4.20;1.50;;;3.80;99.90;;;;;;4968387;28;20053;-71
2023/11/17 03:55:11;;;;;;;2.80;1.30;;;3.80;99.90;;;;;;4970225;28;20159;-61
2023/11/17 03:57:38;;;;;;;1.83;1.30;;;3.80;99.90;;;;;;4966202;28;20509;-61
2023/11/17 04:00:05;;;;;;;1.33;1.10;;;3.80;99.90;;;;;;4966508;28;20046;-60
2023/11/17 04:02:32;;;;;;;1.55;1.25;;;3.70;99.90;;;;;;4963354;28;20393;-60
2023/11/17 04:04:58;;;;;;;4.40;1.90;;;3.70;99.90;;;;;;4969347;28;20535;-61
2023/11/17 04:07:25;;;;;;;2.65;1.70;;;3.70;99.90;;;;;;4969810;28;20580;-61
2023/11/17 04:09:51;;;;;;;2.42;1.83;;;3.70;99.90;;;;;;4963806;28;20043;-61
2023/11/17 04:12:18;;;;;;;2.28;1.60;;;3.60;99.90;;;;;;4970249;28;20057;-61
2023/11/17 04:14:45;;;;;;;2.05;1.50;;;3.70;99.90;;;;;;4967982;28;20051;-61
2023/11/17 04:17:12;;;;;;;2.20;1.73;;;3.70;99.90;;;;;;4970000;28;20047;-61
2023/11/17 04:19:40;;;;;;;1.75;1.55;;;3.70;99.90;;;;;;4960737;28;20034;-61
2023/11/17 04:22:07;;;;;;;2.55;1.63;;;3.70;99.90;;;;;;4969383;28;20054;-68
2023/11/17 04:24:34;;;;;;;1.02;1.02;;;3.70;99.90;;;;;;4969292;28;20053;-60
2023/11/17 04:27:00;;;;;;;2.08;1.60;;;3.70;99.90;;;;;;4968359;28;20054;-61
2023/11/17 04:29:27;;;;;;;1.67;1.58;;;3.60;99.90;;;;;;4964786;28;20058;-61
2023/11/17 04:31:57;;;;;;;5.93;2.05;;;3.70;99.90;;;;;;4956612;28;20051;-61
2023/11/17 04:34:23;;;;;;;2.20;1.50;;;3.70;99.90;;;;;;4969665;28;20042;-62
2023/11/17 04:36:49;;;;;;;3.28;1.83;;;3.80;99.90;;;;;;4968249;28;20286;-61
2023/11/17 04:39:23;;;;;;;7.85;1.95;;;3.80;99.90;;;;;;4957151;28;20043;-61
2023/11/17 04:41:51;;;;;;;4.10;1.70;;;3.80;99.90;;;;;;4959303;28;20053;-60
2023/11/17 04:44:18;;;;;;;3.53;1.73;;;3.90;99.90;;;;;;4968293;28;20117;-63
2023/11/17 04:46:44;;;;;;;3.30;1.80;;;3.90;99.90;;;;;;4968900;28;20090;-71
2023/11/17 04:49:14;;;;;;;3.63;1.70;;;3.90;99.90;;;;;;4967915;28;20054;-61
2023/11/17 04:51:47;;;;;;;3.38;1.55;;;4.00;99.90;;;;;;4961919;28;20042;-60
2023/11/17 04:54:14;;;;;;;2.65;1.60;;;3.90;99.90;;;;;;4968435;28;20129;-61
2023/11/17 04:56:41;;;;;;;1.27;1.23;;;4.00;99.90;;;;;;4968411;28;20043;-61
2023/11/17 04:59:10;;;;;;;3.20;1.55;;;3.90;99.90;;;;;;4968829;28;20082;-73
2023/11/17 05:01:37;;;;;;;3.63;1.40;;;3.90;99.90;;;;;;4960645;28;20548;-61
2023/11/17 05:04:04;;;;;;;1.40;1.30;;;3.90;99.90;;;;;;4968461;28;20448;-61
2023/11/17 05:06:31;;;;;;;3.70;1.77;;;3.90;99.90;;;;;;4960478;28;20492;-77
2023/11/17 05:08:57;;;;;;;2.78;1.50;;;3.90;99.90;;;;;;4969166;28;20400;-61
2023/11/17 05:11:24;;;;;;;1.40;1.30;;;3.90;99.90;;;;;;4966575;28;20042;-61
2023/11/17 05:13:50;;;;;;;2.45;1.20;;;3.80;99.90;;;;;;4962137;28;20046;-61
2023/11/17 05:16:17;;;;;;;4.82;1.30;;;3.80;99.90;;;;;;4968768;28;20121;-83
2023/11/17 05:18:43;;;;;;;1.75;1.30;;;3.80;99.90;;;;;;4967709;28;20568;-61
2023/11/17 05:21:12;;;;;;;2.30;1.50;;;3.70;99.90;;;;;;4968929;28;20118;-60
2023/11/17 05:23:39;;;;;;;3.13;1.17;;;3.70;99.90;;;;;;4962877;28;20043;-61
2023/11/17 05:26:06;;;;;;;1.63;1.35;;;3.60;99.90;;;;;;4968989;28;20058;-60
2023/11/17 05:28:33;;;;;;;0.98;0.93;;;3.60;99.90;;;;;;4967101;28;20066;-61
2023/11/17 05:31:02;;;;;;;5.38;1.92;;;3.60;99.90;;;;;;4967699;28;20473;-61
2023/11/17 05:33:29;;;;;;;2.50;1.50;;;3.60;99.90;;;;;;4966519;28;20042;-61
2023/11/17 05:35:56;;;;;;;3.05;1.75;;;3.60;99.90;;;;;;4967566;28;20113;-61
2023/11/17 05:38:26;;;;;;;4.35;1.70;;;3.50;99.90;;;;;;4963966;28;20060;-61
2023/11/17 05:40:53;;;;;;;1.00;1.00;;;3.50;99.90;;;;;;4959198;28;20130;-84
2023/11/17 05:43:19;;;;;;;1.90;1.58;;;3.50;99.90;;;;;;4964939;28;20122;-61
2023/11/17 05:45:50;;;;;;;2.03;1.50;;;3.50;99.90;;;;;;4957644;28;20099;-62
2023/11/17 05:48:17;;;;;;;1.42;1.33;;;3.40;99.90;;;;;;4969130;28;20062;-62
2023/11/17 05:50:43;;;;;;;2.78;1.58;;;3.40;99.90;;;;;;4967951;28;20043;-87
2023/11/17 05:53:10;;;;;;;2.70;1.30;;;3.40;99.90;;;;;;4967736;28;20047;-82
2023/11/17 05:55:36;;;;;;;2.50;1.65;;;3.40;99.90;;;;;;4956977;28;20074;-61
2023/11/17 05:58:04;;;;;;;1.77;1.67;;;3.50;99.90;;;;;;4967326;28;20051;-61
2023/11/17 06:00:31;;;;;;;4.90;1.77;;;3.50;99.90;;;;;;4968688;28;20071;-61
2023/11/17 06:02:57;;;;;;;8.23;2.10;;;3.50;99.90;;;;;;4960537;28;20097;-79
2023/11/17 06:05:24;;;;;;;2.63;1.63;;;3.50;99.90;;;;;;4958864;28;20082;-61
2023/11/17 06:07:51;;;;;;;2.90;1.33;;;3.50;99.90;;;;;;4967452;28;20378;-61
2023/11/17 06:10:17;;;;;;;7.85;1.73;;;3.60;99.90;;;;;;4967918;28;20047;-64
2023/11/17 06:12:44;;;;;;;10.13;1.75;;;3.50;99.90;;;;;;4971695;28;20054;-80
2023/11/17 06:15:10;;;;;;;2.47;1.75;;;3.60;99.90;;;;;;4961063;28;20050;-61
2023/11/17 06:17:37;;;;;;;2.42;1.98;;;3.60;99.90;;;;;;4965297;28;20078;-62
2023/11/17 06:20:04;;;;;;;1.92;1.70;;;3.60;99.90;;;;;;4961038;28;20365;-61
2023/11/17 06:22:31;;;;;;;4.13;1.83;;;3.60;99.90;;;;;;4954412;28;20424;-60
2023/11/17 06:24:58;;;;;;;1.90;1.80;;;3.60;99.90;;;;;;4970432;28;20122;-61
2023/11/17 06:27:25;;;;;;;4.35;1.65;;;3.50;99.90;;;;;;4971775;28;20049;-61
2023/11/17 06:29:52;;;;;;;3.20;2.00;;;3.50;99.90;;;;;;4971123;28;20071;-60
2023/11/17 06:32:18;;;;;;;1.67;1.58;;;3.50;99.90;;;;;;4969137;28;20047;-65
2023/11/17 06:34:46;;;;;;;3.42;1.83;;;3.50;99.90;;;;;;4971414;28;20067;-71
2023/11/17 06:37:12;;;;;;;4.22;2.00;;;3.50;99.90;;;;;;4970250;28;20049;-61
2023/11/17 06:39:39;;;;;;;5.63;1.98;;;3.40;99.90;;;;;;4966476;28;20051;-61
2023/11/17 06:42:06;;;;;;;6.72;2.28;;;3.50;99.90;;;;;;4950124;28;20413;-85
2023/11/17 06:44:32;;;;;;;3.63;1.95;;;3.40;99.90;;;;;;4968502;28;20086;-61
2023/11/17 06:46:59;;;;;;;1.80;1.70;;;3.40;99.90;;;;;;4964116;28;20043;-61
2023/11/17 06:49:26;;;;;;;4.45;2.30;;;3.30;99.90;;;;;;4963100;28;20120;-61
2023/11/17 06:51:55;;;;;;;6.63;1.80;;;3.30;99.90;;;;;;4971055;28;20179;-61
2023/11/17 06:54:23;;;;;;;2.08;1.95;;;3.30;99.90;;;;;;4961205;28;20513;-61
2023/11/17 06:56:51;;;;;;;4.57;1.90;;;3.30;99.90;;;;;;4968075;28;20097;-61
2023/11/17 06:59:22;;;;;;;4.10;2.15;;;3.40;99.90;;;;;;4963399;28;20043;-86
2023/11/17 07:01:51;;;;;;;6.03;1.70;;;3.30;99.90;;;;;;4952822;28;20066;-61
2023/11/17 07:04:19;;;;;;;1.67;1.45;;;3.20;99.90;;;;;;4956537;28;20066;-61
2023/11/17 07:06:47;;;;;;;3.30;1.67;;;3.00;99.90;;;;;;4969946;28;20134;-77
2023/11/17 07:09:16;;;;;;;3.10;1.77;;;2.90;99.90;;;;;;4971068;28;20035;-82
2023/11/17 07:11:47;;;;;;;2.80;2.20;;;2.90;99.90;;;;;;4969764;28;20043;-61
2023/11/17 07:14:16;;;;;;;1.95;1.75;;;3.00;99.90;;;;;;4970808;28;20061;-77
2023/11/17 07:16:44;;;;;;;4.03;2.20;;;3.60;99.90;;;;;;4970160;28;20051;-86
2023/11/17 07:19:11;;;;;;;5.30;2.58;;;3.90;99.90;;;;;;4969315;28;20125;-62
2023/11/17 07:21:39;;;;;;;3.53;2.83;;;4.20;99.90;;;;;;4965118;28;20086;-61
2023/11/17 07:24:06;;;;;;;3.50;2.20;;;4.30;99.90;;;;;;4968558;28;20053;-83
2023/11/17 07:26:36;;;;;;;5.78;2.35;;;4.40;99.90;;;;;;4944050;28;20118;-60
2023/11/17 07:29:04;;;;;;;3.10;2.80;;;4.50;99.90;;;;;;4968740;28;20066;-61
2023/11/17 07:31:38;;;;;;;5.05;3.00;;;4.50;99.90;;;;;;4969017;28;20494;-61
2023/11/17 07:34:08;;;;;;;3.75;2.78;;;4.50;99.90;;;;;;4961425;28;20050;-61
2023/11/17 07:36:37;;;;;;;4.15;2.67;;;4.60;99.90;;;;;;4963013;28;20076;-61
2023/11/17 07:39:05;;;;;;;2.63;2.35;;;4.50;99.90;;;;;;4950983;29;20047;-61
2023/11/17 07:41:33;;;;;;;2.70;2.42;;;4.60;99.90;;;;;;4949433;29;20047;-61
2023/11/17 07:44:01;;;;;;;3.45;2.10;;;4.50;99.90;;;;;;4960201;28;20110;-61
2023/11/17 07:46:28;;;;;;;3.10;2.15;;;4.40;99.90;;;;;;4951784;28;20094;-61
2023/11/17 07:48:55;;;;;;;3.67;2.08;;;4.40;99.90;;;;;;4950648;29;20054;-61
2023/11/17 07:51:22;;;;;;;3.88;2.30;;;4.30;99.90;;;;;;4961818;28;20057;-61
2023/11/17 07:53:49;;;;;;;3.80;2.50;;;4.30;99.90;;;;;;4950327;29;20454;-61
2023/11/17 07:56:16;;;;;;;6.93;2.70;;;4.30;99.90;;;;;;4950053;28;20552;-61
2023/11/17 07:58:43;;;;;;;3.33;2.42;;;4.30;99.90;;;;;;4949105;29;20052;-79
2023/11/17 08:01:09;;;;;;;3.60;2.72;;;4.30;99.90;;;;;;4947967;28;20559;-61
2023/11/17 08:03:37;;;;;;;5.70;2.97;;;4.40;99.90;;;;;;4949404;29;20115;-61
2023/11/17 08:06:04;;;;;;;3.35;2.97;;;4.40;99.90;;;;;;4950563;28;20070;-61
2023/11/17 08:08:31;;;;;;;6.57;3.78;;;4.40;99.90;;;;;;4949179;29;20135;-61
2023/11/17 08:10:59;;;;;;;5.38;3.65;;;4.40;99.90;;;;;;4963244;28;20093;-83
2023/11/17 08:13:26;;;;;;;6.40;4.00;;;4.40;99.90;;;;;;4955237;28;20043;-61
2023/11/17 08:15:54;;;;;;;4.72;3.60;;;4.40;99.90;;;;;;4948944;29;20062;-86
2023/11/17 08:18:21;;;;;;;7.00;4.20;;;4.40;99.90;;;;;;4949970;29;20126;-82
2023/11/17 08:20:48;;;;;;;4.95;3.10;;;4.40;99.90;;;;;;4947709;29;20068;-61
2023/11/17 08:23:14;;;;;;;3.55;3.25;;;4.50;99.90;;;;;;4950117;29;20047;-61
2023/11/17 08:25:43;;;;;;;4.00;3.60;;;4.50;99.90;;;;;;4948906;29;20057;-61
2023/11/17 08:28:09;;;;;;;5.30;3.67;;;4.50;99.90;;;;;;4949536;29;20142;-61
2023/11/17 08:30:37;;;;;;;4.22;3.17;;;4.50;99.90;;;;;;4949935;29;20490;-60
2023/11/17 08:33:07;;;;;;;3.78;3.38;;;4.50;99.90;;;;;;4948942;29;20035;-61
2023/11/17 08:35:33;;;;;;;5.72;3.17;;;4.50;99.90;;;;;;4949438;29;20405;-61
2023/11/17 08:38:00;;;;;;;10.40;3.47;;;4.50;99.90;;;;;;4948254;29;20051;-61
2023/11/17 08:40:26;;;;;;;5.30;2.55;;;4.50;99.90;;;;;;4950210;29;20039;-61
2023/11/17 08:42:53;;;;;;;3.83;3.15;;;4.50;99.90;;;;;;4948603;29;20047;-61
2023/11/17 08:45:19;;;;;;;6.63;3.22;;;4.50;99.90;;;;;;4949846;29;20478;-62
2023/11/17 08:47:49;;;;;;;5.38;2.80;;;4.60;99.90;;;;;;4949451;29;20107;-86
2023/11/17 08:50:16;;;;;;;3.83;2.92;;;4.60;99.90;;;;;;4948017;29;20043;-87
2023/11/17 08:52:45;;;;;;;4.35;3.10;;;4.70;99.90;;;;;;4949991;29;20453;-62
2023/11/17 08:55:14;;;;;;;4.60;3.53;;;4.80;99.90;;;;;;4947766;29;20075;-61
2023/11/17 08:57:44;;;;;;;5.88;3.60;;;5.00;99.90;;;;;;4950262;29;20449;-61
2023/11/17 09:00:14;;;;;;;4.35;3.22;;;5.10;99.90;;;;;;4947913;29;20454;-61
2023/11/17 09:02:41;;;;;;;6.00;3.55;;;5.30;99.90;;;;;;4949787;29;20043;-61
2023/11/17 09:05:11;;;;;;;7.00;4.00;;;5.40;99.90;;;;;;4948719;29;20078;-83
2023/11/17 09:07:41;;;;;;;6.47;3.50;;;5.50;99.90;;;;;;4948059;29;20051;-83
2023/11/17 09:10:13;;;;;;;15.40;3.38;;;5.60;99.90;;;;;;4959858;28;21086;-61
2023/11/17 09:12:42;;;;;;;3.70;3.25;;;5.70;99.90;;;;;;4961608;28;20086;-82
2023/11/17 09:15:16;;;;;;;8.02;3.47;;;5.70;99.90;;;;;;4949708;29;20398;-82
2023/11/17 09:17:46;;;;;;;5.03;3.60;;;5.90;99.90;;;;;;4943789;29;20123;-87
2023/11/17 09:20:17;;;;;;;5.07;3.50;;;6.10;99.90;;;;;;4942904;29;20050;-61
2023/11/17 09:22:44;;;;;;;6.95;3.78;;;6.30;99.90;;;;;;4956534;28;20087;-61
2023/11/17 09:25:15;;;;;;;4.22;3.35;;;6.40;99.90;;;;;;4947889;29;20045;-61
2023/11/17 09:27:47;;;;;;;6.15;4.13;;;6.50;99.90;;;;;;4949798;29;20114;-61
2023/11/17 09:30:15;;;;;;;6.57;3.80;;;6.50;99.90;;;;;;4947514;29;20062;-63
2023/11/17 09:32:47;;;;;;;8.55;3.85;;;6.60;99.90;;;;;;4949606;29;20130;-73
2023/11/17 09:35:17;;;;;;;9.10;4.32;;;6.60;99.90;;;;;;4947887;29;20400;-61
2023/11/17 09:37:50;;;;;;;;;;;6.50;99.90;;;;;;4949376;28;20055;-61
2023/11/17 09:40:24;;;;;;;6.03;3.45;;;6.50;99.90;;;;;;4960013;28;19922;-61
2023/11/17 09:42:53;;;;;;;7.93;4.18;;;6.50;99.90;;;;;;4947840;29;20397;-61
2023/11/17 09:45:25;;;;;;;8.55;4.03;;;6.40;99.90;;;;;;4943345;28;20534;-61
2023/11/17 09:47:57;;;;;;;7.63;3.85;;;6.40;99.90;;;;;;4949749;28;20039;-74
2023/11/17 09:50:28;;;;;;;6.53;4.53;;;6.40;99.90;;;;;;4948441;29;20069;-61
2023/11/17 09:52:55;;;;;;;5.90;3.83;;;6.40;99.90;;;;;;4947142;28;20043;-62
2023/11/17 09:55:30;;;;;;;3.80;3.30;;;6.30;99.90;;;;;;4948361;29;20439;-61
2023/11/17 09:58:05;;;;;;;7.97;3.42;;;6.30;99.90;;;;;;4953271;29;20054;-60
2023/11/17 10:00:54;;;;;;;9.50;3.45;;;6.30;99.90;;;;;;4951010;29;20516;-61
2023/11/17 10:03:23;;;;;;;6.80;3.20;;;6.40;99.90;;;;;;4947564;29;20522;-61
2023/11/17 10:05:51;;;;;;;4.63;3.88;;;6.40;99.90;;;;;;4952771;29;20047;-61
2023/11/17 10:08:23;;;;;;;4.03;3.38;;;6.60;99.90;;;;;;4962906;28;20047;-61
2023/11/17 10:10:50;;;;;;;6.25;3.30;;;6.70;99.90;;;;;;4951296;28;20450;-61
2023/11/17 10:13:20;;;;;;;5.00;3.17;;;6.80;99.90;;;;;;4956668;28;20075;-61
2023/11/17 10:15:50;;;;;;;5.25;3.65;;;6.90;99.90;;;;;;4952642;29;20043;-61
2023/11/17 10:18:24;;;;;;;5.28;3.40;;;7.10;99.90;;;;;;4951537;29;20051;-61
2023/11/17 10:20:53;;;;;;;5.20;3.42;;;7.20;99.90;;;;;;4951787;29;20058;-80
2023/11/17 10:23:20;;;;;;;3.85;3.50;;;7.20;99.90;;;;;;4952676;29;20039;-81
2023/11/17 10:25:55;;;;;;;3.70;2.70;;;7.20;99.90;;;;;;4950736;29;20098;-77
2023/11/17 10:28:24;;;;;;;3.40;2.60;;;7.30;99.90;;;;;;4950541;29;20047;-77
2023/11/17 10:31:00;;;;;;;6.75;2.90;;;7.30;99.90;;;;;;4950763;29;20039;-61
2023/11/17 10:33:35;;;;;;;7.03;3.15;;;7.30;99.90;;;;;;4951936;29;20094;-74
2023/11/17 10:36:12;;;;;;;2.05;1.90;;;7.30;99.90;;;;;;4951377;28;20122;-61
2023/11/17 10:38:45;;;;;;;5.07;2.20;;;7.40;99.90;;;;;;4950312;29;20043;-61
2023/11/17 10:41:32;;;;;;;6.68;2.47;;;7.30;99.90;;;;;;4952179;29;20051;-61
2023/11/17 10:44:03;;;;;;;4.93;2.20;;;7.40;99.90;;;;;;4941274;29;20094;-60
2023/11/17 10:46:39;;;;;;;2.03;1.90;;;7.40;99.90;;;;;;4951244;29;20180;-86
2023/11/17 10:49:07;;;;;;;2.08;1.58;;;7.40;99.90;;;;;;4942383;29;20055;-60
2023/11/17 10:51:47;;;;;;;3.53;1.75;;;7.40;99.90;;;;;;4950116;29;20379;-61
2023/11/17 10:54:14;;;;;;;1.23;1.10;;;7.40;99.90;;;;;;4945456;29;20051;-61
2023/11/17 10:56:52;;;;;;;2.78;1.55;;;7.50;99.90;;;;;;4950066;28;20054;-83
2023/11/17 10:59:19;;;;;;;1.20;1.13;;;7.40;99.90;;;;;;4941396;29;20416;-67
2023/11/17 11:01:47;;;;;;;2.58;1.20;;;7.50;99.90;;;;;;4951015;28;20047;-61
2023/11/17 11:04:19;;;;;;;2.00;0.80;;;7.50;99.90;;;;;;4950841;29;20059;-60
2023/11/17 11:06:46;;;;;;;0.82;0.80;;;7.70;99.90;;;;;;4951959;29;20047;-61
2023/11/17 11:09:17;;;;;;;1.30;0.63;;;7.80;99.90;;;;;;4953215;28;20072;-61
2023/11/17 11:11:50;;;;;;;4.35;0.68;;;7.80;99.90;;;;;;4960915;28;20437;-84
2023/11/17 11:14:18;;;;;;;1.20;0.30;;;7.80;99.90;;;;;;4955832;28;20081;-61
2023/11/17 11:16:48;;;;;;;0.47;0.47;;;7.80;99.90;;;;;;4969773;28;20058;-81
2023/11/17 11:19:19;;;;;;;0.22;0.22;;;7.80;99.90;;;;;;4966750;28;20051;-86
2023/11/17 11:21:51;;;;;;;0.50;0.40;;;7.70;99.90;;;;;;4959333;28;20177;-61
2023/11/17 11:24:18;;;;;;;0.98;0.40;;;7.70;99.90;;;;;;4951298;29;20095;-61
2023/11/17 11:26:49;;;;;;;0.82;0.63;;;7.60;99.90;;;;;;4949905;29;20474;-61
2023/11/17 11:29:19;;;;;;;3.95;1.08;;;7.50;99.90;;;;;;4951137;29;20043;-61
2023/11/17 11:31:47;;;;;;;;;;;7.50;99.90;;;;;;4950876;29;20131;-62
2023/11/17 11:34:15;;;;;;;1.40;0.40;;;7.50;99.90;;;;;;4950685;29;20051;-61
2023/11/17 11:36:45;;;;;;;1.08;0.45;;;7.40;99.90;;;;;;4950794;29;20106;-61
2023/11/17 11:39:12;;;;;;;0.10;0.10;;;7.40;99.90;;;;;;4950014;28;20043;-85
2023/11/17 11:41:41;;;;;;;0.45;0.30;;;7.30;99.90;;;;;;4950409;29;20043;-82
2023/11/17 11:44:09;;;;;;;3.03;1.05;;;7.30;99.90;;;;;;4950133;29;20051;-85
2023/11/17 11:46:37;;;;;;;0.82;0.30;;;7.30;99.90;;;;;;4950150;28;20043;-84
2023/11/17 11:49:11;;;;;;;0.47;0.40;;;7.30;99.90;;;;;;4948924;28;20074;-86
2023/11/17 11:51:56;;;;;;;0.20;0.20;;;7.30;99.90;;;;;;4949106;29;20075;-62
2023/11/17 11:54:23;;;;;;;0.17;0.15;;;7.40;99.90;;;;;;4950670;28;20110;-61
2023/11/17 11:56:50;;;;;;;0.30;0.13;;;7.40;99.90;;;;;;4948818;29;20426;-62
2023/11/17 11:59:16;;;;;;;0.90;0.17;;;7.40;99.90;;;;;;4951155;29;20536;-62
2023/11/17 12:01:46;;;;;;;0.10;0.10;;;7.40;99.90;;;;;;4948470;29;20126;-62
2023/11/17 12:04:12;;;;;;;0.73;0.20;;;7.40;99.90;;;;;;4939321;29;20493;-62
2023/11/17 12:06:44;;;;;;;0.03;0.03;;;7.40;99.90;;;;;;4949806;28;20110;-84
2023/11/17 12:09:20;;;;;;;0.10;0.10;;;7.50;99.90;;;;;;4952094;28;20105;-80
2023/11/17 12:11:48;;;;;;;3.05;0.35;;;7.50;99.90;;;;;;4958539;28;20062;-62
2023/11/17 12:14:26;;;;;;;0.30;0.30;;;7.50;99.90;;;;;;4938137;29;20047;-62
2023/11/17 12:16:55;;;;;;;0.75;0.22;;;7.40;99.90;;;;;;4950152;29;20296;-63
2023/11/17 12:19:27;;;;;;;1.20;0.40;;;7.50;99.90;;;;;;4949972;29;20361;-65
2023/11/17 12:21:54;;;;;;;0.57;0.40;;;7.50;99.90;;;;;;4949518;29;20043;-64
2023/11/17 12:24:23;;;;;;;0.93;0.93;;;7.50;99.90;;;;;;4950633;29;20051;-84
2023/11/17 12:26:55;;;;;;;0.40;0.40;;;7.40;99.90;;;;;;4931703;29;20055;-64
2023/11/17 12:29:27;;;;;;;0.60;0.60;;;7.50;99.90;;;;;;4936697;28;20059;-64
2023/11/17 12:31:54;;;;;;;0.77;0.70;;;7.60;99.90;;;;;;4948658;29;20610;-64
2023/11/17 12:34:24;;;;;;;1.08;0.80;;;7.70;99.90;;;;;;4950265;29;20043;-84
2023/11/17 12:36:56;;;;;;;2.85;1.05;;;7.70;99.90;;;;;;4949205;29;20051;-87
2023/11/17 12:39:36;;;;;;;1.88;1.20;;;7.90;99.90;;;;;;4949487;29;20508;-65
2023/11/17 12:42:04;;;;;;;5.05;0.75;;;8.10;99.90;;;;;;4946515;29;20379;-64
2023/11/17 12:44:33;;;;;;;0.85;0.82;;;8.30;99.90;;;;;;4948053;29;20051;-67
2023/11/17 12:47:00;;;;;;;0.73;0.73;;;8.50;99.90;;;;;;4950055;29;20043;-64
2023/11/17 12:49:27;;;;;;;1.42;0.45;;;8.60;99.90;;;;;;4949092;29;20088;-64
2023/11/17 12:52:06;;;;;;;0.47;0.47;;;8.60;99.90;;;;;;4949172;29;20584;-81
2023/11/17 12:54:33;;;;;;;0.35;0.35;;;8.70;99.90;;;;;;4943005;29;20043;-62
2023/11/17 12:56:59;;;;;;;5.10;0.57;;;8.90;99.90;;;;;;4948538;29;20051;-62
2023/11/17 12:59:26;;;;;;;1.40;0.52;;;8.90;99.90;;;;;;4949927;29;20082;-61
2023/11/17 13:01:53;;;;;;;0.50;0.50;;;8.90;99.90;;;;;;4947528;29;20054;-61
2023/11/17 13:04:25;;;;;;;0.38;0.38;;;8.90;99.90;;;;;;4950075;29;20054;-62
2023/11/17 13:06:52;;;;;;;1.15;0.38;;;9.00;99.90;;;;;;4948692;29;20051;-87